Casper, WY

8:58 AM MDT on March 25, 2017 (GMT -0600)
Grant Avenue | | Change Station

Elev 5164 ft 42.84 °N, 106.32 °W | Updated 16 minutes ago

Mostly Cloudy
Mostly Cloudy
50.5 °F
Feels Like 50.5 °F
N
1.9
Wind Variable Wind from SSW
Gusts 5.0 mph

Today
High -- | Low -- °F
--% Chance of Precip.
Yesterday
High -- | Low -- °F
Precip. -- in
Pressure 29.95 in
Visibility 10.0 miles
Clouds Clear
Dew Point 30 °F
Humidity 45%
Rainfall 0.00 in
Snow Depth Not available.
6:59 AM 7:23 PM
Waning Crescent, 8% visible
METAR KCPR 251453Z 23009KT 10SM CLR 08/M02 A2998 RMK AO2 SLP141 T00781017 53002
Pressure 29.95 in
Visibility 10.0 miles
Clouds Clear
Dew Point 30 °F
Humidity 45%
Rainfall 0.00 in
Snow Depth Not available.
6:59 AM 7:23 PM
Waning Crescent, 8% visible
METAR KCPR 251453Z 23009KT 10SM CLR 08/M02 A2998 RMK AO2 SLP141 T00781017 53002

Get Severe Weather Alerts

Thanks for signing up!

Be on the lookout for a verification email in your inbox.

You'll start receiving the daily forecast at 8 AM.

×

10-Day Weather Forecast

Almanac

Astronomy

Mar. 25, 2017 Rise Set
Actual Time
Civil Twilight
Nautical Twilight
Astronomical Twilight
Moon
Length of Visible Light
Length of Day
Tomorrow will be .
, % of the Moon is Illuminated

Today's Extremes

State Highs State Lows

Community

WunderPhotos

Upload Photos

1,962,540 photos uploaded!

WunderBlog® & News

Nearby

Air Quality

  Air Quality AQ Index Pollutant
Not available.

Snow Depth

Station Depth Elevation

Earthquake Activity

City Distance Mag. Time & Date
Minimum magnitude displayed is 2.5.

Earthquake Activity

City Distance Mag. Time & Date
Minimum magnitude displayed is 2.5.

Coastal Water Temperatures

Place Temperature

Stations

Nearby Weather Stations

Station Location Temp. Windchill Dew Point Humidity Wind Precip. Elev Updated Type
                   

Watches & Warnings

There are currently no watches in effect.